createdAt,value
2023-06-07T00:02:09.666Z,29.65
2023-06-07T00:04:40.962Z,26.23
2023-06-07T00:07:08.099Z,30.45
2023-06-07T00:09:35.187Z,30.08
2023-06-07T00:12:02.106Z,29.30
2023-06-07T00:14:29.082Z,34.58
2023-06-07T00:16:56.574Z,29.42
2023-06-07T00:19:26.570Z,26.10
2023-06-07T00:21:53.593Z,27.30
2023-06-07T00:24:21.073Z,22.48
2023-06-07T00:26:48.172Z,27.65
2023-06-07T00:29:16.056Z,30.43
2023-06-07T00:31:43.111Z,28.52
2023-06-07T00:34:10.121Z,29.95
2023-06-07T00:36:37.116Z,28.83
2023-06-07T00:39:04.741Z,29.73
2023-06-07T00:41:31.782Z,25.88
2023-06-07T00:43:58.710Z,25.80
2023-06-07T00:46:28.677Z,29.42
2023-06-07T00:48:55.806Z,20.45
2023-06-07T00:51:22.890Z,34.10
2023-06-07T00:53:49.895Z,25.42
2023-06-07T00:56:16.763Z,24.00
2023-06-07T00:58:44.605Z,26.80
2023-06-07T01:01:11.533Z,28.33
2023-06-07T01:03:39.084Z,28.10
2023-06-07T01:06:06.720Z,30.83
2023-06-07T01:08:33.634Z,23.13
2023-06-07T01:11:00.841Z,28.10
2023-06-07T01:13:28.186Z,29.70
2023-06-07T01:15:55.090Z,28.93
2023-06-07T01:18:25.655Z,24.27
2023-06-07T01:20:55.663Z,26.65
2023-06-07T01:23:41.642Z,29.65
2023-06-07T01:26:08.553Z,25.80
2023-06-07T01:28:35.732Z,34.83
2023-06-07T01:31:03.060Z,29.13
2023-06-07T01:33:31.192Z,26.60
2023-06-07T01:35:58.225Z,23.63
2023-06-07T01:38:25.217Z,33.25
2023-06-07T01:40:52.101Z,26.83
2023-06-07T01:43:18.996Z,24.50
2023-06-07T01:45:46.095Z,31.88
2023-06-07T01:48:13.073Z,20.15
2023-06-07T01:50:39.940Z,28.55
2023-06-07T01:53:06.886Z,30.30
2023-06-07T01:55:33.742Z,33.63
2023-06-07T01:58:19.099Z,30.67
2023-06-07T02:01:04.045Z,25.52
2023-06-07T02:03:39.766Z,22.92
2023-06-07T02:06:09.444Z,28.70
2023-06-07T02:08:46.707Z,25.27
2023-06-07T02:11:13.603Z,27.10
2023-06-07T02:13:42.265Z,22.60
2023-06-07T02:16:09.141Z,26.50
2023-06-07T02:18:41.721Z,24.67
2023-06-07T02:21:11.707Z,27.92
2023-06-07T02:23:39.045Z,30.95
2023-06-07T02:26:06.018Z,29.60
2023-06-07T02:28:33.232Z,27.53
2023-06-07T02:31:00.185Z,33.60
2023-06-07T02:33:27.232Z,26.20
2023-06-07T02:35:54.340Z,23.70
2023-06-07T02:38:21.252Z,30.63
2023-06-07T02:40:48.169Z,28.73
2023-06-07T02:43:15.566Z,24.30
2023-06-07T02:45:42.436Z,27.45
2023-06-07T02:48:10.389Z,26.52
2023-06-07T02:50:37.275Z,23.53
2023-06-07T02:53:07.222Z,24.95
2023-06-07T02:55:34.791Z,22.80
2023-06-07T02:58:01.702Z,30.58
2023-06-07T03:00:28.717Z,31.10
2023-06-07T03:02:55.773Z,31.67
2023-06-07T03:05:22.824Z,27.50
2023-06-07T03:07:51.794Z,25.65
2023-06-07T03:10:18.795Z,29.83
2023-06-07T03:12:45.871Z,25.13
2023-06-07T03:15:12.759Z,31.00
2023-06-07T03:17:41.702Z,33.55
2023-06-07T03:20:09.948Z,23.95
2023-06-07T03:22:37.609Z,23.60
2023-06-07T03:25:05.278Z,31.55
2023-06-07T03:27:34.031Z,26.53
2023-06-07T03:30:01.265Z,21.87
2023-06-07T03:32:28.253Z,28.83
2023-06-07T03:34:55.190Z,20.55
2023-06-07T03:37:22.054Z,20.52
2023-06-07T03:39:48.966Z,24.77
2023-06-07T03:42:15.808Z,25.57
2023-06-07T03:44:42.662Z,32.65
2023-06-07T03:47:09.762Z,28.48
2023-06-07T03:49:36.632Z,27.70
2023-06-07T03:52:04.781Z,31.85
2023-06-07T03:54:31.621Z,32.47
2023-06-07T03:56:58.683Z,22.73
2023-06-07T03:59:27.417Z,21.45
2023-06-07T04:01:55.301Z,23.00
2023-06-07T04:04:23.157Z,25.30
2023-06-07T04:06:50.605Z,23.83
2023-06-07T04:09:19.421Z,30.90
2023-06-07T04:11:46.390Z,28.95
2023-06-07T04:14:13.489Z,27.40
2023-06-07T04:16:40.431Z,30.40
2023-06-07T04:19:07.303Z,26.70
2023-06-07T04:21:34.178Z,34.85
2023-06-07T04:24:02.015Z,39.90
2023-06-07T04:26:31.126Z,26.17
2023-06-07T04:28:58.949Z,27.40
2023-06-07T04:31:30.407Z,18.48
2023-06-07T04:34:02.841Z,21.25
2023-06-07T04:36:29.933Z,23.58
2023-06-07T04:39:03.135Z,23.20
2023-06-07T04:41:34.425Z,29.45
2023-06-07T04:44:01.913Z,27.23
2023-06-07T04:46:29.922Z,21.23
2023-06-07T04:48:57.224Z,27.08
2023-06-07T04:51:27.342Z,30.45
2023-06-07T04:54:02.882Z,27.85
2023-06-07T04:56:30.060Z,17.30
2023-06-07T04:58:57.837Z,21.13
2023-06-07T05:01:25.893Z,25.30
2023-06-07T05:04:00.188Z,31.80
2023-06-07T05:06:29.908Z,20.35
2023-06-07T05:08:57.102Z,24.00
2023-06-07T05:11:24.136Z,24.25
2023-06-07T05:13:51.078Z,21.73
2023-06-07T05:16:18.173Z,22.30
2023-06-07T05:18:47.722Z,21.95
2023-06-07T05:21:16.281Z,21.70
2023-06-07T05:23:43.270Z,23.27
2023-06-07T05:26:10.252Z,18.70
2023-06-07T05:28:37.293Z,21.10
2023-06-07T05:31:04.478Z,21.23
2023-06-07T05:33:32.176Z,23.77
2023-06-07T05:35:59.306Z,21.98
2023-06-07T05:38:26.394Z,22.77
2023-06-07T05:40:55.309Z,17.63
2023-06-07T05:43:22.265Z,26.35
2023-06-07T05:45:49.274Z,17.15
2023-06-07T05:48:16.210Z,22.70
2023-06-07T05:50:43.176Z,22.80
2023-06-07T05:53:11.087Z,27.43
2023-06-07T05:55:38.178Z,27.15
2023-06-07T05:58:05.125Z,21.20
2023-06-07T06:00:33.109Z,21.70
2023-06-07T06:03:05.675Z,25.15
2023-06-07T06:05:32.778Z,22.80
2023-06-07T06:08:08.242Z,18.05
2023-06-07T06:10:36.720Z,18.85
2023-06-07T06:13:12.012Z,20.63
2023-06-07T06:15:39.147Z,18.20
2023-06-07T06:18:07.300Z,20.15
2023-06-07T06:20:37.623Z,17.77
2023-06-07T06:23:06.295Z,16.98
2023-06-07T06:25:38.290Z,24.70
2023-06-07T06:28:08.258Z,25.30
2023-06-07T06:30:35.333Z,22.48
2023-06-07T06:33:03.482Z,15.00
2023-06-07T06:35:34.049Z,18.90
2023-06-07T06:38:03.495Z,18.95
2023-06-07T06:40:30.551Z,14.18
2023-06-07T06:42:58.006Z,17.85
2023-06-07T06:45:33.410Z,19.45
2023-06-07T06:48:01.491Z,17.77
2023-06-07T06:50:33.491Z,22.65
2023-06-07T06:53:01.655Z,15.02
2023-06-07T06:55:30.360Z,21.38
2023-06-07T06:57:58.718Z,20.77
2023-06-07T07:00:26.895Z,21.95
2023-06-07T07:02:55.143Z,20.67
2023-06-07T07:05:25.407Z,17.42
2023-06-07T07:07:58.476Z,21.13
2023-06-07T07:10:27.814Z,16.33
2023-06-07T07:12:55.066Z,19.08
2023-06-07T07:15:33.641Z,21.40
2023-06-07T07:18:03.953Z,17.08
2023-06-07T07:20:32.065Z,21.23
2023-06-07T07:23:01.722Z,13.68
2023-06-07T07:25:29.816Z,20.10
2023-06-07T07:27:58.099Z,21.00
2023-06-07T07:30:27.899Z,16.33
2023-06-07T07:32:56.346Z,20.30
2023-06-07T07:35:26.307Z,21.73
2023-06-07T07:37:54.963Z,18.00
2023-06-07T07:40:22.088Z,22.90
2023-06-07T07:42:51.171Z,14.23
2023-06-07T07:45:22.781Z,19.48
2023-06-07T07:47:50.759Z,21.48
2023-06-07T07:50:19.275Z,20.08
2023-06-07T07:52:49.071Z,15.88
2023-06-07T07:55:19.180Z,16.27
2023-06-07T07:57:47.273Z,17.70
2023-06-07T08:00:17.880Z,19.33
2023-06-07T08:02:45.040Z,25.33
2023-06-07T08:05:12.440Z,18.15
2023-06-07T08:07:41.170Z,18.67
2023-06-07T08:10:10.273Z,17.65
2023-06-07T08:12:39.413Z,17.40
2023-06-07T08:15:07.363Z,19.75
2023-06-07T08:17:34.370Z,18.83
2023-06-07T08:20:06.507Z,25.55
2023-06-07T08:22:34.340Z,17.33
2023-06-07T08:25:02.718Z,17.40
2023-06-07T08:27:31.930Z,19.15
2023-06-07T08:29:58.860Z,19.13
2023-06-07T08:32:33.118Z,18.83
2023-06-07T08:35:06.790Z,21.17
2023-06-07T08:37:33.721Z,19.25
2023-06-07T08:40:00.815Z,21.55
2023-06-07T08:42:27.962Z,18.73
2023-06-07T08:44:55.842Z,19.45
2023-06-07T08:47:23.879Z,24.05
2023-06-07T08:49:51.023Z,50.08
2023-06-07T08:52:17.935Z,18.92
2023-06-07T08:54:45.186Z,18.38
2023-06-07T08:57:19.849Z,17.73
2023-06-07T08:59:47.279Z,16.27
2023-06-07T09:02:14.581Z,23.30
2023-06-07T09:04:43.968Z,20.48
2023-06-07T09:07:13.036Z,19.27
2023-06-07T09:09:44.880Z,17.58
2023-06-07T09:12:12.133Z,21.85
2023-06-07T09:14:42.259Z,15.60
2023-06-07T09:17:09.442Z,16.55
2023-06-07T09:19:37.415Z,26.45
2023-06-07T09:22:06.686Z,15.50
2023-06-07T09:24:34.179Z,21.08
2023-06-07T09:27:04.627Z,17.00
2023-06-07T09:29:39.858Z,19.30
2023-06-07T09:32:22.300Z,19.45
2023-06-07T09:35:01.663Z,18.27
2023-06-07T09:37:42.252Z,24.75
2023-06-07T09:40:09.724Z,14.10
2023-06-07T09:42:38.621Z,17.45
2023-06-07T09:45:16.227Z,14.95
2023-06-07T09:47:45.465Z,20.65
2023-06-07T09:50:16.232Z,22.75
2023-06-07T09:52:45.514Z,24.40
2023-06-07T09:55:27.495Z,18.30
2023-06-07T09:57:57.246Z,20.02
2023-06-07T10:00:24.880Z,23.75
2023-06-07T10:02:51.877Z,18.95
2023-06-07T10:05:25.839Z,21.85
2023-06-07T10:07:56.107Z,23.13
2023-06-07T10:10:25.842Z,31.88
2023-06-07T10:12:53.079Z,16.25
2023-06-07T10:15:24.488Z,17.38
2023-06-07T10:18:01.818Z,17.20
2023-06-07T10:20:42.393Z,17.00
2023-06-07T10:23:13.301Z,22.85
2023-06-07T10:26:16.033Z,26.13
2023-06-07T10:29:26.350Z,22.40
2023-06-07T10:32:23.104Z,23.38
2023-06-07T10:34:50.095Z,20.10
2023-06-07T10:37:17.219Z,21.85
2023-06-07T10:39:45.271Z,20.88
2023-06-07T10:42:12.252Z,20.33
2023-06-07T10:44:39.318Z,21.17
2023-06-07T10:47:25.134Z,26.98
2023-06-07T10:49:59.871Z,20.60
2023-06-07T10:52:30.095Z,20.05
2023-06-07T10:54:59.022Z,28.55
2023-06-07T10:57:34.199Z,24.67
2023-06-07T11:00:39.745Z,25.33
2023-06-07T11:03:06.834Z,25.33
2023-06-07T11:06:26.451Z,24.98
2023-06-07T11:08:53.432Z,23.77
2023-06-07T11:11:42.250Z,24.20
2023-06-07T11:14:09.744Z,20.98
2023-06-07T11:16:37.385Z,22.85
2023-06-07T11:19:16.548Z,22.63
2023-06-07T11:24:41.231Z,27.45
2023-06-07T11:27:15.643Z,25.73
2023-06-07T11:29:44.725Z,23.85
2023-06-07T11:32:12.276Z,22.48
2023-06-07T11:34:39.569Z,20.38
2023-06-07T11:37:17.674Z,20.17
2023-06-07T11:39:47.342Z,19.35
2023-06-07T11:42:14.202Z,30.08
2023-06-07T11:44:41.165Z,22.98
2023-06-07T11:47:08.433Z,24.02
2023-06-07T11:49:39.796Z,22.42
2023-06-07T11:52:07.272Z,28.23
2023-06-07T11:54:35.317Z,17.70
2023-06-07T11:57:02.417Z,21.55
2023-06-07T11:59:33.294Z,23.10
2023-06-07T12:02:00.692Z,18.38
2023-06-07T12:04:29.735Z,24.45
2023-06-07T12:06:58.134Z,26.30
2023-06-07T12:09:25.016Z,23.15
2023-06-07T12:11:54.098Z,19.90
2023-06-07T12:14:33.427Z,23.58
2023-06-07T12:17:03.965Z,19.45
2023-06-07T12:19:33.180Z,22.90
2023-06-07T12:22:07.508Z,21.05
2023-06-07T12:24:39.092Z,21.42
2023-06-07T12:27:06.480Z,25.02
2023-06-07T12:29:33.885Z,15.85
2023-06-07T12:32:01.651Z,17.52
2023-06-07T12:34:31.365Z,22.95
2023-06-07T12:36:59.473Z,17.95
2023-06-07T12:39:30.650Z,22.48
2023-06-07T12:41:59.059Z,17.58
2023-06-07T12:44:28.570Z,19.13
2023-06-07T12:47:03.329Z,17.45
2023-06-07T12:49:30.346Z,22.05
2023-06-07T12:51:57.295Z,19.45
2023-06-07T12:54:24.264Z,16.73
2023-06-07T12:56:54.439Z,14.82
2023-06-07T12:59:23.318Z,18.23
2023-06-07T13:01:52.513Z,18.88
2023-06-07T13:04:23.430Z,17.52
2023-06-07T13:06:56.680Z,18.73
2023-06-07T13:09:24.102Z,22.02
2023-06-07T13:11:53.064Z,19.70
2023-06-07T13:14:21.780Z,19.48
2023-06-07T13:16:48.731Z,20.40
2023-06-07T13:19:16.870Z,19.25
2023-06-07T13:21:45.753Z,24.20
2023-06-07T13:24:12.677Z,16.50
2023-06-07T13:26:42.903Z,25.58
2023-06-07T13:29:10.792Z,17.85
2023-06-07T13:31:37.778Z,17.27
2023-06-07T13:34:07.802Z,27.33
2023-06-07T13:36:35.005Z,19.48
2023-06-07T13:39:01.871Z,22.73
2023-06-07T13:41:30.566Z,16.20
2023-06-07T13:44:16.469Z,23.58
2023-06-07T13:46:45.519Z,22.30
2023-06-07T13:49:13.598Z,18.65
2023-06-07T13:51:40.596Z,19.52
2023-06-07T13:54:07.494Z,14.90
2023-06-07T13:59:18.965Z,21.77
2023-06-07T14:01:47.333Z,26.73
2023-06-07T14:04:14.542Z,27.60
2023-06-07T14:06:43.416Z,19.38
2023-06-07T14:09:10.360Z,22.33
2023-06-07T14:11:38.929Z,19.77
2023-06-07T14:14:06.216Z,22.27
2023-06-07T14:16:33.163Z,23.63
2023-06-07T14:19:00.050Z,18.38
2023-06-07T14:21:26.939Z,19.73
2023-06-07T14:23:53.887Z,22.83
2023-06-07T14:26:21.090Z,21.10
2023-06-07T14:28:50.446Z,17.80
2023-06-07T14:31:21.995Z,14.38
2023-06-07T14:33:53.435Z,23.02
2023-06-07T14:36:21.161Z,22.65
2023-06-07T14:38:50.100Z,21.58
2023-06-07T14:41:17.974Z,17.83
2023-06-07T14:43:44.846Z,23.60
2023-06-07T14:46:11.896Z,17.75
2023-06-07T14:48:38.824Z,15.50
2023-06-07T14:51:05.955Z,17.17
2023-06-07T14:53:32.839Z,20.83
2023-06-07T14:55:59.706Z,25.67
2023-06-07T14:58:28.737Z,19.77
2023-06-07T15:00:55.694Z,21.85
2023-06-07T15:03:22.630Z,28.50
2023-06-07T15:05:58.928Z,18.98
2023-06-07T15:08:25.802Z,20.30
2023-06-07T15:10:52.686Z,22.45
2023-06-07T15:13:20.551Z,28.42
2023-06-07T15:15:47.493Z,22.40
2023-06-07T15:18:14.600Z,24.20
2023-06-07T15:20:42.755Z,17.83
2023-06-07T15:23:09.660Z,23.05
2023-06-07T15:25:39.597Z,22.92
2023-06-07T15:28:09.217Z,17.90
2023-06-07T15:30:37.128Z,21.67
2023-06-07T15:33:04.879Z,23.20
2023-06-07T15:35:32.856Z,19.13
2023-06-07T15:37:59.854Z,19.58
2023-06-07T15:40:26.710Z,24.38
2023-06-07T15:42:53.630Z,29.30
2023-06-07T15:45:20.739Z,26.10
2023-06-07T15:48:01.075Z,25.45
2023-06-07T15:50:28.916Z,23.15
2023-06-07T15:52:57.556Z,22.70
2023-06-07T15:55:25.189Z,26.52
2023-06-07T15:57:54.530Z,20.60
2023-06-07T16:00:43.615Z,26.65
2023-06-07T16:03:09.633Z,19.95
2023-06-07T16:05:36.823Z,23.98
2023-06-07T16:08:12.566Z,26.55
2023-06-07T16:10:40.683Z,32.47
2023-06-07T16:13:07.603Z,28.52
2023-06-07T16:15:35.210Z,21.42
2023-06-07T16:18:03.189Z,24.67
2023-06-07T16:20:30.092Z,25.30
2023-06-07T16:23:03.170Z,28.98
2023-06-07T16:25:30.159Z,32.22
2023-06-07T16:27:58.153Z,28.65
2023-06-07T16:30:24.998Z,23.83
2023-06-07T16:32:52.039Z,26.70
2023-06-07T16:35:18.934Z,22.38
2023-06-07T16:37:46.350Z,26.17
2023-06-07T16:40:13.580Z,24.67
2023-06-07T16:42:42.004Z,25.50
2023-06-07T16:45:12.297Z,25.15
2023-06-07T16:47:43.019Z,26.60
2023-06-07T16:50:11.417Z,26.60
2023-06-07T16:52:44.232Z,26.02
2023-06-07T16:55:12.944Z,25.85
2023-06-07T16:57:40.536Z,26.02
2023-06-07T17:00:10.022Z,25.77
2023-06-07T17:02:38.074Z,32.45
2023-06-07T17:05:05.365Z,26.65
2023-06-07T17:07:32.210Z,32.40
2023-06-07T17:09:59.121Z,23.85
2023-06-07T17:12:32.210Z,27.50
2023-06-07T17:14:59.056Z,20.23
2023-06-07T17:17:30.331Z,28.77
2023-06-07T17:19:57.747Z,24.17
2023-06-07T17:22:25.653Z,30.77
2023-06-07T17:24:52.525Z,32.33
2023-06-07T17:27:21.800Z,25.45
2023-06-07T17:29:48.767Z,28.85
2023-06-07T17:32:17.744Z,26.30
2023-06-07T17:34:44.709Z,29.25
2023-06-07T17:37:12.018Z,22.73
2023-06-07T17:39:39.087Z,28.92
2023-06-07T17:42:09.102Z,29.88
2023-06-07T17:44:35.988Z,28.27
2023-06-07T17:47:02.992Z,32.40
2023-06-07T17:49:33.990Z,25.13
2023-06-07T17:52:09.716Z,25.63
2023-06-07T17:54:48.800Z,25.30
2023-06-07T17:57:18.074Z,31.98
2023-06-07T17:59:44.953Z,28.13
2023-06-07T18:02:13.345Z,28.83
2023-06-07T18:04:40.246Z,28.35
2023-06-07T18:07:08.172Z,35.25
2023-06-07T18:09:35.143Z,26.45
2023-06-07T18:12:04.255Z,29.30
2023-06-07T18:14:31.941Z,30.17
2023-06-07T18:16:59.080Z,31.88
2023-06-07T18:19:26.338Z,24.38
2023-06-07T18:21:53.637Z,24.65
2023-06-07T18:24:20.584Z,27.55
2023-06-07T18:26:47.566Z,26.33
2023-06-07T18:29:17.280Z,31.23
2023-06-07T18:31:44.347Z,30.75
2023-06-07T18:34:12.288Z,32.65
2023-06-07T18:36:40.158Z,26.05
2023-06-07T18:39:08.250Z,37.70
2023-06-07T18:41:36.479Z,25.42
2023-06-07T18:44:04.027Z,30.15
2023-06-07T18:46:30.984Z,26.25
2023-06-07T18:49:03.844Z,33.55
2023-06-07T18:51:31.740Z,31.55
2023-06-07T18:53:58.675Z,23.35
2023-06-07T18:56:26.982Z,30.60
2023-06-07T18:58:57.382Z,30.02
2023-06-07T19:01:34.691Z,36.38
2023-06-07T19:04:09.812Z,33.03
2023-06-07T19:06:36.776Z,43.00
2023-06-07T19:09:04.692Z,34.03
2023-06-07T19:11:31.745Z,26.58
2023-06-07T19:13:59.170Z,28.25
2023-06-07T19:16:27.037Z,39.20
2023-06-07T19:18:53.910Z,30.92
2023-06-07T19:21:21.301Z,29.08
2023-06-07T19:23:48.265Z,32.88
2023-06-07T19:26:16.217Z,29.40
2023-06-07T19:28:44.242Z,33.42
2023-06-07T19:31:17.043Z,31.17
2023-06-07T19:33:44.366Z,28.25
2023-06-07T19:36:13.951Z,37.60
2023-06-07T19:38:41.939Z,31.15
2023-06-07T19:41:08.828Z,36.30
2023-06-07T19:43:35.910Z,35.08
2023-06-07T19:46:02.834Z,33.70
2023-06-07T19:48:29.687Z,32.92
2023-06-07T19:50:56.588Z,37.50
2023-06-07T19:53:23.454Z,36.03
2023-06-07T19:55:50.528Z,34.42
2023-06-07T19:58:17.596Z,32.35
2023-06-07T20:00:44.561Z,30.58
2023-06-07T20:03:11.622Z,32.33
2023-06-07T20:05:38.592Z,32.13
2023-06-07T20:08:08.785Z,40.70
2023-06-07T20:10:36.084Z,39.63
2023-06-07T20:13:02.975Z,31.27
2023-06-07T20:15:29.884Z,29.15
2023-06-07T20:17:56.912Z,30.77
2023-06-07T20:20:23.857Z,36.53
2023-06-07T20:22:50.912Z,33.22
2023-06-07T20:25:17.990Z,37.85
2023-06-07T20:27:44.879Z,29.40
2023-06-07T20:30:12.765Z,36.65
2023-06-07T20:32:39.759Z,33.63
2023-06-07T20:35:07.051Z,30.13
2023-06-07T20:37:35.169Z,37.45
2023-06-07T20:40:06.681Z,32.47
2023-06-07T20:42:33.830Z,31.55
2023-06-07T20:45:00.766Z,32.80
2023-06-07T20:47:27.668Z,36.60
2023-06-07T20:49:54.624Z,30.63
2023-06-07T20:52:22.548Z,36.15
2023-06-07T20:54:49.417Z,36.08
2023-06-07T20:57:16.523Z,33.65
2023-06-07T20:59:47.128Z,36.13
2023-06-07T21:02:14.034Z,32.08
2023-06-07T21:04:40.933Z,32.83
2023-06-07T21:07:07.779Z,36.15
2023-06-07T21:09:34.682Z,28.98
2023-06-07T21:12:01.625Z,34.78
2023-06-07T21:14:28.504Z,36.88
2023-06-07T21:16:55.361Z,22.58
2023-06-07T21:19:22.205Z,35.80
2023-06-07T21:21:49.089Z,32.95
2023-06-07T21:24:16.212Z,39.45
2023-06-07T21:26:43.902Z,39.83
2023-06-07T21:29:10.863Z,39.25
2023-06-07T21:31:38.708Z,38.90
2023-06-07T21:34:05.660Z,31.20
2023-06-07T21:36:32.538Z,32.70
2023-06-07T21:38:59.764Z,33.72
2023-06-07T21:41:29.307Z,45.88
2023-06-07T21:43:56.316Z,37.05
2023-06-07T21:46:23.312Z,33.35
2023-06-07T21:48:50.209Z,36.63
2023-06-07T21:51:17.042Z,32.65
2023-06-07T21:53:43.922Z,38.08
2023-06-07T21:56:10.920Z,33.40
2023-06-07T21:58:37.832Z,33.75
2023-06-07T22:01:05.885Z,35.97
2023-06-07T22:03:33.263Z,32.95
2023-06-07T22:06:01.864Z,34.47
2023-06-07T22:08:29.010Z,42.20
2023-06-07T22:10:55.961Z,33.05
2023-06-07T22:13:24.092Z,38.83
2023-06-07T22:15:54.642Z,35.63
2023-06-07T22:18:21.671Z,31.85
2023-06-07T22:20:50.550Z,38.75
2023-06-07T22:23:17.576Z,35.22
2023-06-07T22:25:44.822Z,35.13
2023-06-07T22:28:14.210Z,32.30
2023-06-07T22:30:42.065Z,33.17
2023-06-07T22:33:09.520Z,32.80
2023-06-07T22:35:37.107Z,26.60
2023-06-07T22:38:06.489Z,45.20
2023-06-07T22:40:35.800Z,38.45
2023-06-07T22:43:03.998Z,38.70
2023-06-07T22:45:31.676Z,34.40
2023-06-07T22:48:06.166Z,32.58
2023-06-07T22:50:43.154Z,41.60
2023-06-07T22:53:15.060Z,48.05
2023-06-07T22:55:42.123Z,35.22
2023-06-07T22:58:09.168Z,28.83
2023-06-07T23:00:36.344Z,33.03
2023-06-07T23:03:09.559Z,38.80
2023-06-07T23:05:38.142Z,40.05
2023-06-07T23:08:05.660Z,36.50
2023-06-07T23:10:37.407Z,34.50
2023-06-07T23:13:18.357Z,36.00
2023-06-07T23:15:46.462Z,35.78
2023-06-07T23:18:17.157Z,31.23
2023-06-07T23:20:49.589Z,36.47
2023-06-07T23:23:19.575Z,32.70
2023-06-07T23:25:47.638Z,36.53
2023-06-07T23:28:14.589Z,40.55
2023-06-07T23:30:41.534Z,44.13
2023-06-07T23:33:08.677Z,33.22
2023-06-07T23:35:36.155Z,37.63
2023-06-07T23:38:03.129Z,37.60
2023-06-07T23:40:30.289Z,35.63
2023-06-07T23:42:57.837Z,39.80
2023-06-07T23:45:26.708Z,38.80
2023-06-07T23:47:53.578Z,35.65
2023-06-07T23:50:21.964Z,34.95
2023-06-07T23:52:48.925Z,42.40
2023-06-07T23:55:16.056Z,33.42
2023-06-07T23:57:42.939Z,37.47
